| time (UTC) | temp F | wind direction | speed MPH | gust MPH | rain 1hr in | rain 24hr in | rain mn in | humidity % | barometer mb |
| 20260906231205 | 95 | 171 | 8.0 | 13.0 | 0.00 | 0.00 | 0.00 | 18 | 1008.7 |
| 20260906230205 | 95 | 177 | 5.0 | 12.0 | 0.00 | 0.00 | 0.00 | 18 | 1008.8 |
| 20260906224205 | 96 | 256 | 5.0 | 10.0 | 0.00 | 0.00 | 0.00 | 17 | 1008.7 |
| 20260906223705 | 97 | 207 | 5.0 | 12.0 | 0.00 | 0.00 | 0.00 | 17 | 1008.9 |
| 20260906222705 | 96 | 221 | 3.0 | 7.0 | 0.00 | 0.00 | 0.00 | 17 | 1008.9 |
| 20260906221705 | 96 | 137 | 3.0 | 8.0 | 0.00 | 0.00 | 0.00 | 17 | 1009.0 |
| 20260906220705 | 96 | 153 | 1.0 | 12.0 | 0.00 | 0.00 | 0.00 | 17 | 1009.3 |
| 20260906214705 | 97 | 261 | 4.0 | 10.0 | 0.00 | 0.00 | 0.00 | 15 | 1009.6 |
| 20260906213705 | 98 | 268 | 5.0 | 9.0 | 0.00 | 0.00 | 0.00 | 15 | 1009.8 |
| 20260906213206 | 99 | 204 | 4.0 | 9.0 | 0.00 | 0.00 | 0.00 | 14 | 1010.0 |
| 20260906212705 | 99 | 355 | 2.0 | 9.0 | 0.00 | 0.00 | 0.00 | 14 | 1010.1 |
| 20260906211205 | 97 | 209 | 3.0 | 9.0 | 0.00 | 0.00 | 0.00 | 14 | 1010.4 |
| 20260906210205 | 96 | 185 | 6.0 | 10.0 | 0.00 | 0.00 | 0.00 | 14 | 1010.6 |
| 20260906204705 | 97 | 96 | 2.0 | 6.0 | 0.00 | 0.00 | 0.00 | 14 | 1011.0 |
| 20260906204206 | 96 | 254 | 3.0 | 6.0 | 0.00 | 0.00 | 0.00 | 15 | 1011.0 |
| 20260906203205 | 94 | 121 | 3.0 | 10.0 | 0.00 | 0.00 | 0.00 | 15 | 1011.3 |
| 20260906202705 | 95 | 142 | 6.0 | 10.0 | 0.00 | 0.00 | 0.00 | 15 | 1011.4 |
| 20260906202205 | 95 | 169 | 6.0 | 9.0 | 0.00 | 0.00 | 0.00 | 15 | 1011.4 |
| 20260906201205 | 96 | 234 | 5.0 | 8.0 | 0.00 | 0.00 | 0.00 | 14 | 1011.6 |
| 20260906200205 | 96 | 246 | 2.0 | 6.0 | 0.00 | 0.00 | 0.00 | 14 | 1011.6 |
| 20260906195705 | 97 | 247 | 3.0 | 6.0 | 0.00 | 0.00 | 0.00 | 14 | 1011.6 |
| 20260906192205 | 94 | 336 | 2.0 | 7.0 | 0.00 | 0.00 | 0.00 | 16 | 1012.1 |
| 20260906191705 | 94 | 214 | 2.0 | 8.0 | 0.00 | 0.00 | 0.00 | 14 | 1012.2 |
| 20260906190705 | 97 | 122 | 1.0 | 9.0 | 0.00 | 0.00 | 0.00 | 13 | 1012.4 |
| 20260906190205 | 96 | 12 | 4.0 | 9.0 | 0.00 | 0.00 | 0.00 | 13 | 1012.5 |
| 20260906185705 | 96 | 26 | 3.0 | 9.0 | 0.00 | 0.00 | 0.00 | 15 | 1012.4 |
| 20260906185207 | 96 | 166 | 1.0 | 3.0 | 0.00 | 0.00 | 0.00 | 15 | 1012.6 |
| 20260906184705 | 95 | 124 | 1.0 | 5.0 | 0.00 | 0.00 | 0.00 | 14 | 1012.7 |
| 20260906184205 | 94 | 95 | 1.0 | 8.0 | 0.00 | 0.00 | 0.00 | 15 | 1012.8 |
| 20260906183205 | 93 | 40 | 2.0 | 7.0 | 0.00 | 0.00 | 0.00 | 17 | 1012.9 |
| 20260906182205 | 93 | 329 | 2.0 | 7.0 | 0.00 | 0.00 | 0.00 | 18 | 1013.0 |
| 20260906181205 | 93 | 323 | 3.0 | 6.0 | 0.00 | 0.00 | 0.00 | 18 | 1013.3 |
| 20260906175214 | 92 | 13 | 3.0 | 7.0 | 0.00 | 0.00 | 0.00 | 21 | 1013.5 |
| 20260906173705 | 90 | 55 | 3.0 | 7.0 | 0.00 | 0.00 | 0.00 | 23 | 1013.7 |
| 20260906173206 | 90 | 66 | 3.0 | 7.0 | 0.00 | 0.00 | 0.00 | 23 | 1013.7 |
| 20260906172706 | 89 | 349 | 2.0 | 8.0 | 0.00 | 0.00 | 0.00 | 24 | 1013.7 |
| 20260906172205 | 88 | 64 | 3.0 | 8.0 | 0.00 | 0.00 | 0.00 | 25 | 1013.8 |
| 20260906171705 | 87 | 40 | 4.0 | 8.0 | 0.00 | 0.00 | 0.00 | 25 | 1013.9 |
| 20260906171205 | 87 | 44 | 4.0 | 8.0 | 0.00 | 0.00 | 0.00 | 26 | 1013.9 |
| 20260906165205 | 84 | 39 | 5.0 | 8.0 | 0.00 | 0.00 | 0.00 | 29 | 1014.2 |
| 20260906162705 | 85 | 0 | 5.0 | 12.0 | 0.00 | 0.00 | 0.00 | 28 | 1014.3 |
| 20260906155705 | 82 | 30 | 5.0 | 10.0 | 0.00 | 0.00 | 0.00 | 30 | 1014.3 |
| 20260906153705 | 82 | 2 | 5.0 | 10.0 | 0.00 | 0.00 | 0.00 | 30 | 1014.5 |
| 20260906151205 | 79 | 348 | 6.0 | 12.0 | 0.00 | 0.00 | 0.00 | 32 | 1014.6 |
| 20260906145705 | 78 | 338 | 6.0 | 13.0 | 0.00 | 0.00 | 0.00 | 32 | 1014.6 |
| 20260906144705 | 77 | 349 | 9.0 | 13.0 | 0.00 | 0.00 | 0.00 | 32 | 1014.6 |
| 20260906143205 | 75 | 344 | 10.0 | 15.0 | 0.00 | 0.00 | 0.00 | 33 | 1014.4 |
| 20260906142706 | 75 | 349 | 7.0 | 15.0 | 0.00 | 0.00 | 0.00 | 34 | 1014.5 |
| 20260906142205 | 74 | 346 | 8.0 | 13.0 | 0.00 | 0.00 | 0.00 | 35 | 1014.4 |
| 20260906135706 | 71 | 4 | 2.0 | 5.0 | 0.00 | 0.00 | 0.00 | 39 | 1014.3 |
| 20260906135204 | 71 | 15 | 1.0 | 3.0 | 0.00 | 0.00 | 0.00 | 40 | 1014.4 |
| 20260906132206 | 69 | 344 | 3.0 | 6.0 | 0.00 | 0.00 | 0.00 | 40 | 1013.9 |
| 20260906131205 | 69 | 334 | 3.0 | 5.0 | 0.00 | 0.00 | 0.00 | 40 | 1013.9 |
| 20260906130705 | 69 | 307 | 2.0 | 3.0 | 0.00 | 0.00 | 0.00 | 40 | 1013.9 |
| 20260906124704 | 69 | 307 | 0.0 | 1.0 | 0.00 | 0.00 | 0.00 | 40 | 1013.7 |
| 20260906123205 | 69 | 307 | 2.0 | 3.0 | 0.00 | 0.00 | 0.00 | 40 | 1013.7 |
| 20260906120705 | 70 | 19 | 1.0 | 3.0 | 0.00 | 0.00 | 0.00 | 39 | 1013.6 |
| 20260906120205 | 70 | 19 | 0.0 | 3.0 | 0.00 | 0.00 | 0.00 | 39 | 1013.5 |
| 20260906115704 | 70 | 19 | 2.0 | 3.0 | 0.00 | 0.00 | 0.00 | 39 | 1013.5 |
| 20260906115205 | 71 | 19 | 2.0 | 3.0 | 0.00 | 0.00 | 0.00 | 39 | 1013.5 |
| 20260906114705 | 71 | 19 | 2.0 | 3.0 | 0.00 | 0.00 | 0.00 | 38 | 1013.6 |
| 20260906114205 | 71 | 28 | 2.0 | 3.0 | 0.00 | 0.00 | 0.00 | 38 | 1013.5 |
| 20260906113205 | 71 | 50 | 0.0 | 0.0 | 0.00 | 0.00 | 0.00 | 38 | 1013.5 |
| 20260906111705 | 72 | 50 | 0.0 | 3.0 | 0.00 | 0.00 | 0.00 | 37 | 1013.5 |
| 20260906111205 | 72 | 50 | 1.0 | 3.0 | 0.00 | 0.00 | 0.00 | 37 | 1013.5 |
| 20260906104205 | 74 | 47 | 0.0 | 0.0 | 0.00 | 0.00 | 0.00 | 36 | 1013.5 |
| 20260906103705 | 74 | 47 | 0.0 | 0.0 | 0.00 | 0.00 | 0.00 | 36 | 1013.4 |
| 20260906101705 | 75 | 333 | 0.0 | 0.0 | 0.00 | 0.00 | 0.00 | 34 | 1013.3 |
| 20260906100205 | 75 | 333 | 1.0 | 3.0 | 0.00 | 0.00 | 0.00 | 33 | 1013.2 |
| 20260906095705 | 75 | 333 | 2.0 | 3.0 | 0.00 | 0.00 | 0.00 | 33 | 1013.3 |
| 20260906095205 | 75 | 333 | 2.0 | 3.0 | 0.00 | 0.00 | 0.00 | 33 | 1013.3 |
| 20260906093205 | 75 | 333 | 3.0 | 5.0 | 0.00 | 0.00 | 0.00 | 33 | 1013.2 |
| 20260906092706 | 76 | 331 | 3.0 | 3.0 | 0.00 | 0.00 | 0.00 | 33 | 1013.2 |
| 20260906092205 | 76 | 335 | 2.0 | 3.0 | 0.00 | 0.00 | 0.00 | 33 | 1013.2 |
| 20260906091705 | 76 | 347 | 2.0 | 6.0 | 0.00 | 0.00 | 0.00 | 33 | 1013.1 |
| 20260906091206 | 76 | 344 | 3.0 | 6.0 | 0.00 | 0.00 | 0.00 | 33 | 1013.1 |
| 20260906090705 | 76 | 324 | 3.0 | 6.0 | 0.00 | 0.00 | 0.00 | 33 | 1013.1 |
| 20260906085206 | 75 | 326 | 4.0 | 6.0 | 0.00 | 0.00 | 0.00 | 33 | 1013.0 |
| 20260906084205 | 75 | 307 | 3.0 | 7.0 | 0.00 | 0.00 | 0.00 | 33 | 1013.1 |
| 20260906083705 | 75 | 303 | 3.0 | 7.0 | 0.00 | 0.00 | 0.00 | 34 | 1013.2 |
| 20260906083205 | 75 | 319 | 2.0 | 5.0 | 0.00 | 0.00 | 0.00 | 34 | 1013.2 |
| 20260906081205 | 74 | 288 | 0.0 | 5.0 | 0.00 | 0.00 | 0.00 | 34 | 1013.3 |
| 20260906075205 | 74 | 308 | 1.0 | 3.0 | 0.00 | 0.00 | 0.00 | 35 | 1013.5 |
| 20260906073705 | 74 | 311 | 2.0 | 3.0 | 0.00 | 0.00 | 0.00 | 36 | 1013.6 |
| 20260906073205 | 74 | 333 | 3.0 | 3.0 | 0.00 | 0.00 | 0.00 | 36 | 1013.6 |
| 20260906072705 | 74 | 333 | 2.0 | 3.0 | 0.00 | 0.00 | 0.00 | 35 | 1013.6 |
| 20260906072204 | 74 | 333 | 1.0 | 3.0 | 0.00 | 0.00 | 0.00 | 35 | 1013.5 |
| 20260906071705 | 75 | 342 | 2.0 | 3.0 | 0.00 | 0.00 | 0.00 | 35 | 1013.6 |
| 20260906071205 | 75 | 351 | 2.0 | 3.0 | 0.00 | 0.00 | 0.00 | 35 | 1013.6 |
| 20260906070205 | 76 | 351 | 1.0 | 2.0 | 0.00 | 0.00 | 0.00 | 34 | 1013.6 |
| 20260906065705 | 76 | 351 | 0.0 | 2.0 | 0.00 | 0.00 | 0.00 | 34 | 1013.6 |
| 20260906065205 | 76 | 351 | 0.0 | 1.0 | 0.00 | 0.00 | 0.00 | 33 | 1013.6 |
| 20260906064706 | 76 | 351 | 0.0 | 2.0 | 0.00 | 0.00 | 0.00 | 33 | 1013.6 |
| 20260906064205 | 76 | 351 | 1.0 | 3.0 | 0.00 | 0.00 | 0.00 | 33 | 1013.6 |
| 20260906063205 | 77 | 351 | 0.0 | 3.0 | 0.00 | 0.00 | 0.00 | 33 | 1013.5 |
| 20260906062204 | 77 | 46 | 0.0 | 5.0 | 0.00 | 0.00 | 0.00 | 33 | 1013.5 |
| 20260906061205 | 77 | 25 | 2.0 | 3.0 | 0.00 | 0.00 | 0.00 | 33 | 1013.4 |
| 20260906060706 | 77 | 12 | 2.0 | 3.0 | 0.00 | 0.00 | 0.00 | 32 | 1013.3 |
| 20260906060205 | 77 | 30 | 3.0 | 3.0 | 0.00 | 0.00 | 0.00 | 33 | 1013.3 |
| 20260906054205 | 78 | 5 | 1.0 | 3.0 | 0.00 | 0.00 | 0.00 | 32 | 1013.1 |
| 20260906053204 | 78 | 5 | 1.0 | 6.0 | 0.00 | 0.00 | 0.00 | 33 | 1013.1 |
| 20260906052205 | 78 | 346 | 5.0 | 8.0 | 0.00 | 0.00 | 0.00 | 33 | 1013.1 |
| 20260906051704 | 78 | 315 | 5.0 | 9.0 | 0.00 | 0.00 | 0.00 | 33 | 1013.0 |
| 20260906051205 | 78 | 314 | 3.0 | 9.0 | 0.00 | 0.00 | 0.00 | 33 | 1012.9 |
| 20260906050705 | 78 | 316 | 3.0 | 10.0 | 0.00 | 0.00 | 0.00 | 33 | 1012.9 |
| 20260906050205 | 78 | 314 | 3.0 | 10.0 | 0.00 | 0.00 | 0.00 | 33 | 1012.8 |
| 20260906043205 | 79 | 315 | 6.0 | 9.0 | 0.00 | 0.00 | 0.00 | 32 | 1012.9 |
| 20260906042705 | 79 | 305 | 5.0 | 8.0 | 0.00 | 0.00 | 0.00 | 32 | 1012.9 |
| 20260906042205 | 79 | 290 | 5.0 | 8.0 | 0.00 | 0.00 | 0.00 | 31 | 1012.8 |
| 20260906041205 | 80 | 300 | 4.0 | 8.0 | 0.00 | 0.00 | 0.00 | 31 | 1012.7 |
| 20260906040205 | 80 | 306 | 5.0 | 8.0 | 0.00 | 0.00 | 0.00 | 30 | 1012.8 |
| 20260906035705 | 80 | 296 | 4.0 | 9.0 | 0.00 | 0.00 | 0.00 | 30 | 1012.9 |
| 20260906034704 | 81 | 307 | 3.0 | 12.0 | 0.00 | 0.00 | 0.00 | 29 | 1012.8 |
| 20260906034205 | 81 | 298 | 5.0 | 12.0 | 0.00 | 0.00 | 0.00 | 29 | 1012.9 |
| 20260906033705 | 81 | 304 | 5.0 | 10.0 | 0.00 | 0.00 | 0.00 | 29 | 1012.7 |
| 20260906032705 | 82 | 300 | 5.0 | 7.0 | 0.00 | 0.00 | 0.00 | 29 | 1012.6 |
| 20260906031705 | 82 | 299 | 5.0 | 9.0 | 0.00 | 0.00 | 0.00 | 28 | 1012.4 |
| 20260906025705 | 83 | 294 | 4.0 | 8.0 | 0.00 | 0.00 | 0.00 | 28 | 1012.2 |
| 20260906025208 | 83 | 303 | 3.0 | 8.0 | 0.00 | 0.00 | 0.00 | 27 | 1012.2 |
| 20260906024205 | 84 | 299 | 5.0 | 9.0 | 0.00 | 0.00 | 0.00 | 27 | 1012.0 |
| 20260906021704 | 86 | 312 | 3.0 | 7.0 | 0.00 | 0.00 | 0.00 | 27 | 1011.8 |
| 20260906020705 | 86 | 305 | 2.0 | 7.0 | 0.00 | 0.00 | 0.00 | 26 | 1011.7 |
| 20260906015704 | 87 | 292 | 1.0 | 7.0 | 0.00 | 0.00 | 0.00 | 26 | 1011.5 |
| 20260906014705 | 87 | 302 | 5.0 | 9.0 | 0.00 | 0.00 | 0.00 | 25 | 1011.5 |
| 20260906011705 | 89 | 307 | 3.0 | 7.0 | 0.00 | 0.00 | 0.00 | 25 | 1011.7 |
| 20260906010705 | 90 | 12 | 3.0 | 10.0 | 0.00 | 0.00 | 0.00 | 24 | 1011.6 |
| 20260906010205 | 90 | 327 | 5.0 | 10.0 | 0.00 | 0.00 | 0.00 | 24 | 1011.6 |
| 20260906005205 | 91 | 330 | 5.0 | 10.0 | 0.00 | 0.00 | 0.00 | 23 | 1011.7 |
| 20260906004704 | 91 | 328 | 6.0 | 10.0 | 0.00 | 0.00 | 0.00 | 23 | 1011.7 |
| 20260906003204 | 92 | 280 | 2.0 | 8.0 | 0.00 | 0.00 | 0.00 | 23 | 1011.7 |
| 20260906002705 | 92 | 288 | 3.0 | 8.0 | 0.00 | 0.00 | 0.00 | 23 | 1011.8 |
| 20260906001705 | 93 | 328 | 7.0 | 14.0 | 0.00 | 0.00 | 0.00 | 23 | 1011.6 |
| 20260905234205 | 94 | 338 | 8.0 | 12.0 | 0.00 | 0.00 | 0.00 | 22 | 1011.5 |
| 20260905232705 | 95 | 345 | 6.0 | 12.0 | 0.00 | 0.00 | 0.00 | 22 | 1011.5 |